07.12.2018 Выкатывание ERJ-145 United Express в аэропорту Houston-George Bush

Информация из открытых источников. Ассоциация «Аэропорт» ГА и владелец сайта не несут ответственности за полноту и корректность информации.
Date:07-DEC-2018
Time:21:52 LT
Type:Embraer ERJ-145LR
Owner/operator:United Express, opb Expressjet
Registration:N16976
C/n / msn:145171
Fatalities:Fatalities: 0 / Occupants: 
Other fatalities:0
Aircraft damage:Unknown
Location:Houston-George Bush Intercontinental Airport, TX (IAH/KIAH) — United States of America
Phase:Landing
Nature:Domestic Scheduled Passenger
Departure airport:KJAX
Destination airport:KIAH

Narrative:
United Express flight UA4446, an Embraer ERJ-145, suffered a runway excursion after landing at on runway 26L at Houston-George Bush Intercontinental Airport, Texas, USA. 
The aircraft came to rest off the right side of the runway and was disabled. The runway was closed. 

Weather at the time of the incident (0352Z, 8 Dec.) 
KIAH 080353Z 02007KT 2SM +TSRA BR BKN005 BKN014CB OVC030 13/13 A3003 RMK AO2 PK WND 01027/0331 TSB53 SLP167 OCNL LTGIC SW TS SW MOV NE P0071 T01280128 $
Sources:

https://aviation-safety.net/wikibase/wiki.php?id=219206
http://www.goklerdeyiz.net/yolcu-ucagi-pistten-cikti/


Добавить комментарий

Ваш адрес email не будет опубликован. Обязательные поля помечены *

Этот сайт использует Akismet для борьбы со спамом. Узнайте как обрабатываются ваши данные комментариев.